createdAt,value
2022-09-23T00:02:50.265Z,19
2022-09-23T00:05:50.219Z,16
2022-09-23T00:08:50.229Z,15
2022-09-23T00:11:50.187Z,19
2022-09-23T00:13:50.192Z,17
2022-09-23T00:16:51.284Z,18
2022-09-23T00:18:50.217Z,21
2022-09-23T00:21:50.225Z,17
2022-09-23T00:24:50.188Z,18
2022-09-23T00:27:50.260Z,16
2022-09-23T00:30:50.235Z,18
2022-09-23T00:32:50.229Z,18
2022-09-23T00:35:50.198Z,15
2022-09-23T00:37:50.218Z,16
2022-09-23T00:40:50.280Z,19
2022-09-23T00:43:50.189Z,17
2022-09-23T00:46:50.211Z,16
2022-09-23T00:48:50.211Z,18
2022-09-23T00:51:50.189Z,17
2022-09-23T00:53:50.201Z,17
2022-09-23T00:56:50.181Z,19
2022-09-23T00:58:50.222Z,17
2022-09-23T01:01:50.226Z,17
2022-09-23T01:03:50.197Z,15
2022-09-23T01:05:50.206Z,18
2022-09-23T01:07:50.189Z,19
2022-09-23T01:10:50.219Z,17
2022-09-23T01:12:50.207Z,16
2022-09-23T01:15:50.205Z,16
2022-09-23T01:17:50.213Z,15
2022-09-23T01:20:50.226Z,18
2022-09-23T01:23:50.206Z,18
2022-09-23T01:25:50.193Z,19
2022-09-23T01:28:50.202Z,16
2022-09-23T01:30:50.306Z,17
2022-09-23T01:33:50.223Z,17
2022-09-23T01:36:50.196Z,18
2022-09-23T01:38:50.196Z,24
2022-09-23T01:40:50.296Z,16
2022-09-23T01:43:50.201Z,17
2022-09-23T01:45:50.190Z,16
2022-09-23T01:48:50.219Z,15
2022-09-23T01:51:50.184Z,18
2022-09-23T01:53:50.215Z,14
2022-09-23T01:55:50.217Z,17
2022-09-23T01:58:50.231Z,15
2022-09-23T02:01:50.228Z,16
2022-09-23T02:03:50.214Z,18
2022-09-23T02:06:50.205Z,15
2022-09-23T02:08:51.535Z,15
2022-09-23T02:11:50.205Z,18
2022-09-23T02:14:50.222Z,17
2022-09-23T02:16:50.264Z,15
2022-09-23T02:19:50.205Z,18
2022-09-23T02:21:50.216Z,15
2022-09-23T02:24:50.221Z,15
2022-09-23T02:27:50.207Z,15
2022-09-23T02:30:50.184Z,18
2022-09-23T02:32:50.219Z,16
2022-09-23T02:35:50.212Z,14
2022-09-23T02:38:50.221Z,15
2022-09-23T02:40:50.268Z,18
2022-09-23T02:42:50.510Z,17
2022-09-23T02:45:50.240Z,16
2022-09-23T02:47:50.201Z,16
2022-09-23T02:50:50.217Z,16
2022-09-23T02:52:50.245Z,16
2022-09-23T02:55:50.251Z,16
2022-09-23T02:58:50.205Z,18
2022-09-23T03:00:50.298Z,18
2022-09-23T03:03:50.225Z,14
2022-09-23T03:06:50.236Z,19
2022-09-23T03:08:50.240Z,20
2022-09-23T03:11:50.223Z,14
2022-09-23T03:13:50.211Z,18
2022-09-23T03:15:50.210Z,16
2022-09-23T03:17:50.235Z,15
2022-09-23T03:20:50.201Z,19
2022-09-23T03:22:50.291Z,17
2022-09-23T03:25:50.223Z,14
2022-09-23T03:28:50.219Z,16
2022-09-23T03:30:50.201Z,15
2022-09-23T03:33:50.242Z,17
2022-09-23T03:36:50.201Z,16
2022-09-23T03:38:50.243Z,17
2022-09-23T03:41:50.201Z,18
2022-09-23T03:44:50.220Z,17
2022-09-23T03:47:50.197Z,17
2022-09-23T03:50:50.230Z,16
2022-09-23T03:52:50.237Z,17
2022-09-23T03:55:50.220Z,18
2022-09-23T03:57:50.218Z,19
2022-09-23T03:59:50.267Z,18
2022-09-23T04:02:50.212Z,17
2022-09-23T04:04:50.237Z,14
2022-09-23T04:07:50.197Z,17
2022-09-23T04:09:50.269Z,16
2022-09-23T04:12:50.214Z,17
2022-09-23T04:14:50.202Z,19
2022-09-23T04:16:50.233Z,15
2022-09-23T04:19:50.227Z,15
2022-09-23T04:21:50.205Z,14
2022-09-23T04:24:50.214Z,18
2022-09-23T04:26:50.242Z,16
2022-09-23T04:29:50.232Z,16
2022-09-23T04:32:50.242Z,15
2022-09-23T04:35:50.216Z,17
2022-09-23T04:38:50.225Z,17
2022-09-23T04:40:50.304Z,14
2022-09-23T04:43:50.217Z,14
2022-09-23T04:45:50.214Z,18
2022-09-23T04:48:50.215Z,16
2022-09-23T04:50:50.236Z,17
2022-09-23T04:53:50.223Z,17
2022-09-23T04:56:50.303Z,16
2022-09-23T04:59:50.197Z,17
2022-09-23T05:01:50.346Z,16
2022-09-23T05:03:50.208Z,18
2022-09-23T05:05:50.214Z,18
2022-09-23T05:08:50.225Z,17
2022-09-23T05:10:50.212Z,15
2022-09-23T05:13:50.200Z,19
2022-09-23T05:15:50.239Z,17
2022-09-23T05:18:50.211Z,14
2022-09-23T05:20:50.244Z,19
2022-09-23T05:23:50.225Z,17
2022-09-23T05:27:05.781Z,17
2022-09-23T05:29:50.219Z,16
2022-09-23T05:32:50.199Z,17
2022-09-23T05:34:50.229Z,24
2022-09-23T05:37:50.206Z,17
2022-09-23T05:39:50.230Z,18
2022-09-23T05:42:50.213Z,18
2022-09-23T05:44:50.234Z,17
2022-09-23T05:46:50.243Z,17
2022-09-23T05:49:59.462Z,18
2022-09-23T05:51:50.214Z,18
2022-09-23T05:53:50.226Z,16
2022-09-23T05:56:50.223Z,21
2022-09-23T05:59:50.214Z,19
2022-09-23T06:02:50.265Z,18
2022-09-23T06:05:50.221Z,17
2022-09-23T06:07:55.234Z,17
2022-09-23T06:09:50.230Z,20
2022-09-23T06:12:50.317Z,20
2022-09-23T06:15:50.256Z,24
2022-09-23T06:18:50.235Z,22
2022-09-23T06:20:50.234Z,21
2022-09-23T06:22:53.091Z,21
2022-09-23T06:25:50.219Z,20
2022-09-23T06:28:50.218Z,20
2022-09-23T06:30:50.253Z,18
2022-09-23T06:33:51.008Z,17
2022-09-23T06:35:56.977Z,17
2022-09-23T06:38:50.255Z,16
2022-09-23T06:41:50.223Z,19
2022-09-23T06:43:50.240Z,16
2022-09-23T06:46:50.347Z,20
2022-09-23T06:48:50.257Z,19
2022-09-23T06:51:50.259Z,16
2022-09-23T06:54:50.210Z,22
2022-09-23T06:57:50.246Z,20
2022-09-23T07:00:50.232Z,20
2022-09-23T07:02:50.261Z,22
2022-09-23T07:05:50.252Z,20
2022-09-23T07:08:50.234Z,20
2022-09-23T07:10:50.242Z,19
2022-09-23T07:12:50.219Z,19
2022-09-23T07:14:50.226Z,21
2022-09-23T07:17:50.228Z,21
2022-09-23T07:20:50.242Z,17
2022-09-23T07:23:50.287Z,19
2022-09-23T07:25:50.286Z,20
2022-09-23T07:28:50.220Z,20
2022-09-23T07:31:50.317Z,21
2022-09-23T07:34:50.215Z,22
2022-09-23T07:36:50.285Z,23
2022-09-23T07:39:50.245Z,21
2022-09-23T07:42:50.202Z,22
2022-09-23T07:44:50.270Z,20
2022-09-23T07:47:50.219Z,19
2022-09-23T07:49:50.245Z,23
2022-09-23T07:52:50.248Z,21
2022-09-23T07:54:50.231Z,20
2022-09-23T07:57:50.235Z,20
2022-09-23T08:00:50.221Z,22
2022-09-23T08:03:50.228Z,26
2022-09-23T08:05:50.269Z,24
2022-09-23T08:08:53.274Z,23
2022-09-23T08:10:50.296Z,24
2022-09-23T08:13:50.245Z,30
2022-09-23T08:15:54.738Z,24
2022-09-23T08:18:50.326Z,23
2022-09-23T08:21:50.222Z,26
2022-09-23T08:24:51.350Z,26
2022-09-23T08:26:50.267Z,27
2022-09-23T08:29:50.244Z,25
2022-09-23T08:32:50.222Z,23
2022-09-23T08:35:50.232Z,23
2022-09-23T08:38:50.233Z,25
2022-09-23T08:40:50.254Z,29
2022-09-23T08:43:50.247Z,24
2022-09-23T08:46:50.221Z,28
2022-09-23T08:48:50.244Z,26
2022-09-23T08:51:50.298Z,27
2022-09-23T08:53:50.223Z,29
2022-09-23T08:55:50.268Z,28
2022-09-23T08:58:50.240Z,28
2022-09-23T09:01:50.303Z,29
2022-09-23T09:03:50.250Z,30
2022-09-23T09:06:53.841Z,34
2022-09-23T09:08:50.235Z,25
2022-09-23T09:10:50.210Z,28
2022-09-23T09:13:50.217Z,28
2022-09-23T09:15:50.260Z,19
2022-09-23T09:18:50.220Z,29
2022-09-23T09:20:50.232Z,27
2022-09-23T09:23:50.209Z,32
2022-09-23T09:26:50.240Z,32
2022-09-23T09:29:50.315Z,27
2022-09-23T09:32:50.254Z,26
2022-09-23T09:34:50.268Z,27
2022-09-23T09:37:50.296Z,25
2022-09-23T09:40:50.317Z,26
2022-09-23T09:43:50.249Z,24
2022-09-23T09:46:50.270Z,20
2022-09-23T09:48:50.416Z,24
2022-09-23T09:50:50.293Z,27
2022-09-23T09:52:50.363Z,28
2022-09-23T09:55:50.186Z,21
2022-09-23T09:57:50.204Z,28
2022-09-23T10:00:50.185Z,22
2022-09-23T10:02:50.176Z,22
2022-09-23T10:04:50.198Z,17
2022-09-23T10:06:50.212Z,25
2022-09-23T10:09:50.191Z,25
2022-09-23T10:11:50.188Z,27
2022-09-23T10:13:50.244Z,25
2022-09-23T10:16:50.241Z,24
2022-09-23T10:19:50.196Z,23
2022-09-23T10:21:50.179Z,22
2022-09-23T10:23:50.199Z,25
2022-09-23T10:26:50.191Z,27
2022-09-23T10:28:50.187Z,26
2022-09-23T10:30:50.304Z,15
2022-09-23T10:33:50.217Z,20
2022-09-23T10:36:50.202Z,26
2022-09-23T10:39:50.186Z,22
2022-09-23T10:42:50.196Z,27
2022-09-23T10:44:50.231Z,34
2022-09-23T10:46:50.264Z,22
2022-09-23T10:49:50.198Z,25
2022-09-23T10:52:50.189Z,17
2022-09-23T10:54:50.209Z,27
2022-09-23T10:56:50.240Z,25
2022-09-23T10:59:50.228Z,27
2022-09-23T11:02:50.212Z,21
2022-09-23T11:05:50.222Z,22
2022-09-23T11:08:50.208Z,25
2022-09-23T11:10:50.244Z,24
2022-09-23T11:13:54.141Z,23
2022-09-23T11:16:50.268Z,19
2022-09-23T11:18:50.225Z,16
2022-09-23T11:20:50.220Z,21
2022-09-23T11:23:50.213Z,19
2022-09-23T11:26:50.247Z,25
2022-09-23T11:29:50.225Z,23
2022-09-23T11:31:50.221Z,26
2022-09-23T11:33:50.221Z,25
2022-09-23T11:36:50.236Z,20
2022-09-23T11:39:50.241Z,25
2022-09-23T11:42:50.251Z,22
2022-09-23T11:45:50.245Z,22
2022-09-23T11:47:50.238Z,22
2022-09-23T11:49:50.229Z,26
2022-09-23T11:51:50.242Z,25
2022-09-23T11:54:50.235Z,24
2022-09-23T11:56:50.253Z,16
2022-09-23T11:58:52.427Z,23
2022-09-23T12:01:50.260Z,22
2022-09-23T12:03:50.372Z,20
2022-09-23T12:05:50.334Z,22
2022-09-23T12:08:50.234Z,21
2022-09-23T12:10:50.263Z,20
2022-09-23T12:12:50.256Z,17
2022-09-23T12:15:50.239Z,17
2022-09-23T12:17:50.249Z,21
2022-09-23T12:20:50.322Z,20
2022-09-23T12:23:50.249Z,20
2022-09-23T12:25:50.267Z,17
2022-09-23T12:28:50.260Z,13
2022-09-23T12:30:50.327Z,12
2022-09-23T12:33:50.265Z,11
2022-09-23T12:36:50.242Z,13
2022-09-23T12:39:51.966Z,16
2022-09-23T12:42:50.249Z,13
2022-09-23T12:44:50.247Z,17
2022-09-23T12:47:50.250Z,12
2022-09-23T12:49:50.237Z,15
2022-09-23T12:51:50.265Z,16
2022-09-23T12:54:50.266Z,15
2022-09-23T12:57:50.265Z,15
2022-09-23T13:00:50.321Z,13
2022-09-23T13:02:50.274Z,16
2022-09-23T13:04:50.286Z,13
2022-09-23T13:07:50.257Z,12
2022-09-23T13:10:50.271Z,13
2022-09-23T13:13:50.248Z,11
2022-09-23T13:15:50.282Z,14
2022-09-23T13:17:50.257Z,16
2022-09-23T13:19:50.265Z,16
2022-09-23T13:22:50.306Z,13
2022-09-23T13:25:50.255Z,16
2022-09-23T13:27:50.265Z,9
2022-09-23T13:29:50.398Z,14
2022-09-23T13:32:50.316Z,16
2022-09-23T13:35:50.261Z,12
2022-09-23T13:38:50.284Z,13
2022-09-23T13:40:50.362Z,12
2022-09-23T13:43:50.274Z,13
2022-09-23T13:45:50.273Z,11
2022-09-23T13:48:50.291Z,9
2022-09-23T13:51:50.265Z,12
2022-09-23T13:53:50.327Z,11
2022-09-23T13:56:50.292Z,11
2022-09-23T13:58:50.321Z,11
2022-09-23T14:01:50.435Z,10
2022-09-23T14:04:50.347Z,13
2022-09-23T14:07:50.287Z,11
2022-09-23T14:10:50.296Z,12
2022-09-23T14:12:50.349Z,13
2022-09-23T14:15:50.298Z,16
2022-09-23T14:17:50.304Z,11
2022-09-23T14:19:50.314Z,13
2022-09-23T14:22:50.284Z,13
2022-09-23T14:24:50.280Z,11
2022-09-23T14:26:50.310Z,13
2022-09-23T14:29:50.297Z,15
2022-09-23T14:31:50.323Z,14
2022-09-23T14:34:50.314Z,12
2022-09-23T14:37:50.294Z,14
2022-09-23T14:39:52.510Z,13
2022-09-23T14:42:50.278Z,14
2022-09-23T14:45:50.402Z,14
2022-09-23T14:48:50.323Z,14
2022-09-23T14:50:50.300Z,11
2022-09-23T14:53:50.318Z,12
2022-09-23T14:56:50.307Z,14
2022-09-23T14:59:50.299Z,13
2022-09-23T15:01:50.302Z,10
2022-09-23T15:04:50.322Z,14
2022-09-23T15:07:50.320Z,12
2022-09-23T15:09:50.374Z,14
2022-09-23T15:12:50.300Z,13
2022-09-23T15:15:50.324Z,13
2022-09-23T15:17:50.308Z,12
2022-09-23T15:20:50.312Z,12
2022-09-23T15:23:50.322Z,15
2022-09-23T15:26:50.328Z,16
2022-09-23T15:28:50.345Z,16
2022-09-23T15:31:50.400Z,11
2022-09-23T15:34:50.325Z,14
2022-09-23T15:37:50.309Z,14
2022-09-23T15:39:50.336Z,14
2022-09-23T15:42:50.322Z,16
2022-09-23T15:44:50.324Z,14
2022-09-23T15:47:50.325Z,13
2022-09-23T15:50:50.332Z,17
2022-09-23T15:53:50.338Z,16
2022-09-23T15:55:50.322Z,14
2022-09-23T15:57:50.325Z,14
2022-09-23T15:59:50.327Z,13
2022-09-23T16:01:50.357Z,18
2022-09-23T16:03:50.349Z,19
2022-09-23T16:06:50.339Z,22
2022-09-23T16:09:50.340Z,21
2022-09-23T16:11:50.388Z,18
2022-09-23T16:14:50.347Z,20
2022-09-23T16:16:50.439Z,15
2022-09-23T16:19:50.321Z,13
2022-09-23T16:21:50.332Z,14
2022-09-23T16:24:50.340Z,15
2022-09-23T16:27:50.341Z,17
2022-09-23T16:30:50.343Z,17
2022-09-23T16:32:50.348Z,18
2022-09-23T16:35:50.367Z,18
2022-09-23T16:38:50.361Z,21
2022-09-23T16:41:50.332Z,21
2022-09-23T16:43:50.360Z,18
2022-09-23T16:45:50.388Z,21
2022-09-23T16:47:50.358Z,20
2022-09-23T16:50:50.330Z,16
2022-09-23T16:52:50.327Z,22
2022-09-23T16:54:50.361Z,18
2022-09-23T16:56:50.347Z,18
2022-09-23T16:59:50.347Z,18
2022-09-23T17:02:50.340Z,24
2022-09-23T17:04:50.346Z,24
2022-09-23T17:07:50.344Z,21
2022-09-23T17:10:50.348Z,25
2022-09-23T17:13:51.392Z,24
2022-09-23T17:15:50.407Z,23
2022-09-23T17:18:50.358Z,19
2022-09-23T17:20:50.348Z,19
2022-09-23T17:23:50.365Z,18
2022-09-23T17:25:50.342Z,17
2022-09-23T17:28:50.358Z,20
2022-09-23T17:30:50.405Z,19
2022-09-23T17:33:50.353Z,17
2022-09-23T17:35:50.340Z,14
2022-09-23T17:37:50.372Z,17
2022-09-23T17:39:50.376Z,17
2022-09-23T17:42:50.374Z,18
2022-09-23T17:44:50.354Z,19
2022-09-23T17:47:50.381Z,22
2022-09-23T17:49:50.373Z,22
2022-09-23T17:52:50.344Z,20
2022-09-23T17:54:50.341Z,16
2022-09-23T17:56:50.356Z,18
2022-09-23T17:59:50.373Z,15
2022-09-23T18:01:50.452Z,15
2022-09-23T18:03:50.367Z,14
2022-09-23T18:06:50.349Z,14
2022-09-23T18:08:50.360Z,17
2022-09-23T18:10:50.368Z,19
2022-09-23T18:12:50.368Z,17
2022-09-23T18:15:50.459Z,16
2022-09-23T18:18:50.371Z,16
2022-09-23T18:21:50.370Z,17
2022-09-23T18:23:50.555Z,16
2022-09-23T18:26:50.417Z,16
2022-09-23T18:29:50.423Z,15
2022-09-23T18:32:50.374Z,17
2022-09-23T18:34:50.404Z,16
2022-09-23T18:36:50.383Z,18
2022-09-23T18:39:50.389Z,18
2022-09-23T18:42:50.397Z,18
2022-09-23T18:44:50.410Z,19
2022-09-23T18:47:50.382Z,23
2022-09-23T18:49:50.411Z,20
2022-09-23T18:52:50.396Z,17
2022-09-23T18:55:50.401Z,21
2022-09-23T18:58:50.415Z,19
2022-09-23T19:00:50.835Z,20
2022-09-23T19:03:50.410Z,18
2022-09-23T19:06:50.407Z,21
2022-09-23T19:09:50.359Z,19
2022-09-23T19:11:50.373Z,22
2022-09-23T19:14:50.396Z,20
2022-09-23T19:16:50.402Z,19
2022-09-23T19:18:50.387Z,20
2022-09-23T19:21:50.407Z,19
2022-09-23T19:23:50.397Z,18
2022-09-23T19:25:50.480Z,18
2022-09-23T19:28:51.028Z,17
2022-09-23T19:31:50.478Z,19
2022-09-23T19:33:50.521Z,16
2022-09-23T19:35:50.381Z,17
2022-09-23T19:37:50.376Z,18
2022-09-23T19:39:50.407Z,19
2022-09-23T19:42:50.377Z,24
2022-09-23T19:44:50.388Z,22
2022-09-23T19:47:50.481Z,21
2022-09-23T19:50:50.377Z,24
2022-09-23T19:52:50.437Z,23
2022-09-23T19:54:50.410Z,17
2022-09-23T19:56:50.431Z,20
2022-09-23T19:59:50.502Z,20
2022-09-23T20:02:50.392Z,24
2022-09-23T20:05:57.634Z,19
2022-09-23T20:08:50.380Z,22
2022-09-23T20:10:50.426Z,18
2022-09-23T20:13:50.386Z,20
2022-09-23T20:16:50.361Z,17
2022-09-23T20:18:50.460Z,20
2022-09-23T20:21:50.474Z,20
2022-09-23T20:23:50.531Z,19
2022-09-23T20:26:50.465Z,18
2022-09-23T20:29:50.427Z,20
2022-09-23T20:32:50.432Z,21
2022-09-23T20:35:50.483Z,21
2022-09-23T20:38:50.443Z,22
2022-09-23T20:40:50.697Z,20
2022-09-23T20:43:50.429Z,15
2022-09-23T20:46:50.461Z,19
2022-09-23T20:48:50.491Z,21
2022-09-23T20:50:50.472Z,19
2022-09-23T20:52:50.462Z,21
2022-09-23T20:54:50.488Z,19
2022-09-23T20:57:50.853Z,18
2022-09-23T21:00:50.701Z,18
2022-09-23T21:03:50.500Z,20
2022-09-23T21:05:50.502Z,23
2022-09-23T21:08:50.410Z,19
2022-09-23T21:10:50.440Z,22
2022-09-23T21:13:50.439Z,19
2022-09-23T21:15:50.474Z,21
2022-09-23T21:18:50.524Z,16
2022-09-23T21:21:57.634Z,16
2022-09-23T21:23:50.488Z,16
2022-09-23T21:26:50.567Z,16
2022-09-23T21:29:50.448Z,18
2022-09-23T21:31:50.625Z,17
2022-09-23T21:33:50.637Z,19
2022-09-23T21:36:50.545Z,15
2022-09-23T21:38:50.498Z,18
2022-09-23T21:41:50.440Z,20
2022-09-23T21:43:50.461Z,18
2022-09-23T21:46:50.489Z,23
2022-09-23T21:49:50.998Z,16
2022-09-23T21:51:50.424Z,17
2022-09-23T21:53:50.453Z,18
2022-09-23T21:56:50.450Z,17
2022-09-23T21:58:50.445Z,13
2022-09-23T22:03:50.762Z,15
2022-09-23T22:05:50.455Z,16
2022-09-23T22:08:50.421Z,15
2022-09-23T22:10:50.471Z,16
2022-09-23T22:13:50.454Z,14
2022-09-23T22:16:50.457Z,18
2022-09-23T22:18:50.471Z,17
2022-09-23T22:20:50.464Z,17
2022-09-23T22:22:50.449Z,18
2022-09-23T22:25:50.452Z,15
2022-09-23T22:28:50.440Z,17
2022-09-23T22:30:50.442Z,16
2022-09-23T22:33:50.550Z,18
2022-09-23T22:36:50.451Z,16
2022-09-23T22:38:50.553Z,16
2022-09-23T22:41:50.427Z,17
2022-09-23T22:44:50.452Z,18
2022-09-23T22:46:50.519Z,14
2022-09-23T22:49:50.463Z,17
2022-09-23T22:52:50.442Z,16
2022-09-23T22:55:50.722Z,17
2022-09-23T22:58:50.422Z,16
2022-09-23T23:00:50.449Z,18
2022-09-23T23:03:50.525Z,14
2022-09-23T23:05:50.461Z,15
2022-09-23T23:08:50.415Z,20
2022-09-23T23:10:50.448Z,22
2022-09-23T23:13:50.433Z,19
2022-09-23T23:15:50.486Z,19
2022-09-23T23:17:50.517Z,19
2022-09-23T23:20:50.450Z,17
2022-09-23T23:22:50.476Z,18
2022-09-23T23:25:50.458Z,18
2022-09-23T23:28:50.457Z,16
2022-09-23T23:31:50.509Z,16
2022-09-23T23:33:50.424Z,19
2022-09-23T23:35:50.469Z,18
2022-09-23T23:37:50.452Z,16
2022-09-23T23:40:50.539Z,17
2022-09-23T23:42:50.452Z,17
2022-09-23T23:45:50.490Z,20
2022-09-23T23:48:50.762Z,17
2022-09-23T23:51:50.471Z,17
2022-09-23T23:54:50.448Z,18
2022-09-23T23:56:50.547Z,18
2022-09-23T23:59:50.456Z,17
